Time;durP1;ratioP1;P1;durP2;ratioP2;P2;SDS_P1;SDS_P2;PMS_P1;PMS_P2;Temp;Humidity;BMP_temperature;BMP_pressure;BME280_temperature;BME280_humidity;BME280_pressure;Samples;Min_cycle;Max_cycle;Signal;HPM_P1;HPM_P2
2021/12/11 00:02:22;;;;;;;111.80;105.07;;;1.00;99.90;;;;;;4372951;32;20160;-66
2021/12/11 00:04:56;;;;;;;110.37;103.97;;;1.10;99.90;;;;;;4362760;32;20228;-66
2021/12/11 00:07:24;;;;;;;112.30;105.17;;;1.10;99.90;;;;;;4364432;32;20168;-64
2021/12/11 00:09:55;;;;;;;110.77;104.13;;;1.10;99.90;;;;;;4378304;32;20187;-65
2021/12/11 00:12:26;;;;;;;108.43;101.73;;;1.20;99.90;;;;;;4377668;32;20169;-63
2021/12/11 00:14:56;;;;;;;111.80;104.67;;;1.20;99.90;;;;;;4377662;32;20549;-68
2021/12/11 00:17:26;;;;;;;106.13;99.40;;;1.30;99.90;;;;;;4379208;32;20549;-64
2021/12/11 00:19:53;;;;;;;116.00;108.40;;;1.30;99.90;;;;;;4376215;32;20438;-64
2021/12/11 00:22:23;;;;;;;116.47;109.57;;;1.30;99.90;;;;;;4376924;32;20206;-67
2021/12/11 00:24:51;;;;;;;123.53;116.20;;;1.30;99.90;;;;;;4378183;32;20717;-64
2021/12/11 00:27:23;;;;;;;113.13;105.73;;;1.20;99.90;;;;;;4377656;32;20140;-64
2021/12/11 00:29:53;;;;;;;119.03;111.83;;;1.20;99.90;;;;;;4376495;32;20137;-65
2021/12/11 00:32:24;;;;;;;115.00;108.00;;;1.20;99.90;;;;;;4379071;32;20225;-64
2021/12/11 00:34:55;;;;;;;116.30;109.10;;;1.20;99.90;;;;;;4376505;32;20211;-64
2021/12/11 00:37:24;;;;;;;120.57;113.20;;;1.20;99.90;;;;;;4376597;32;20167;-64
2021/12/11 00:39:56;;;;;;;126.40;118.60;;;1.20;99.90;;;;;;4377376;32;20561;-64
2021/12/11 00:42:31;;;;;;;118.30;110.97;;;1.20;99.90;;;;;;4376861;32;20190;-66
2021/12/11 00:44:59;;;;;;;115.53;108.67;;;1.20;99.90;;;;;;4377123;32;20148;-64
2021/12/11 00:47:29;;;;;;;110.77;104.10;;;1.20;99.90;;;;;;4377155;32;20216;-64
2021/12/11 00:49:59;;;;;;;111.07;103.97;;;1.30;99.90;;;;;;4378006;32;20163;-67
2021/12/11 00:52:37;;;;;;;119.47;112.33;;;1.30;99.90;;;;;;4376267;32;20184;-64
2021/12/11 00:55:08;;;;;;;110.03;103.37;;;1.40;99.90;;;;;;4376726;32;20167;-64
2021/12/11 00:57:35;;;;;;;111.97;105.23;;;1.30;99.90;;;;;;4378591;32;20140;-64
2021/12/11 01:00:08;;;;;;;119.33;112.27;;;1.30;99.90;;;;;;4376627;32;20180;-64
2021/12/11 01:02:36;;;;;;;108.37;101.87;;;1.30;99.90;;;;;;4376131;32;20183;-64
2021/12/11 01:05:05;;;;;;;112.50;105.70;;;1.30;99.90;;;;;;4376893;32;20195;-64
2021/12/11 01:07:33;;;;;;;110.37;103.93;;;1.30;99.90;;;;;;4378186;32;20140;-64
2021/12/11 01:10:02;;;;;;;115.23;108.43;;;1.30;99.90;;;;;;4377818;32;20494;-64
2021/12/11 01:12:41;;;;;;;115.83;108.67;;;1.30;99.90;;;;;;4377884;32;20144;-64
2021/12/11 01:15:14;;;;;;;120.67;113.87;;;1.30;99.90;;;;;;4376756;32;20541;-65
2021/12/11 01:17:47;;;;;;;121.80;114.77;;;1.30;99.90;;;;;;4375965;32;20148;-64
2021/12/11 01:20:22;;;;;;;115.47;108.67;;;1.30;99.90;;;;;;4376798;32;20148;-64
2021/12/11 01:22:51;;;;;;;124.43;117.20;;;1.30;99.90;;;;;;4376101;32;20201;-64
2021/12/11 01:25:23;;;;;;;118.23;111.40;;;1.30;99.90;;;;;;4377958;32;20183;-65
2021/12/11 01:27:53;;;;;;;117.97;110.93;;;1.30;99.90;;;;;;4375629;32;20471;-64
2021/12/11 01:30:24;;;;;;;114.57;108.10;;;1.30;99.90;;;;;;4378096;32;20198;-64
2021/12/11 01:32:52;;;;;;;117.43;110.57;;;1.30;99.90;;;;;;4376358;32;20543;-64
2021/12/11 01:35:21;;;;;;;117.93;110.83;;;1.30;99.90;;;;;;4376417;32;20160;-64
2021/12/11 01:37:59;;;;;;;119.27;113.00;;;1.40;99.90;;;;;;4378058;32;20172;-64
2021/12/11 01:40:31;;;;;;;119.20;112.20;;;1.40;99.90;;;;;;4375233;32;20156;-64
2021/12/11 01:43:01;;;;;;;116.87;110.23;;;1.50;99.90;;;;;;4370509;32;20156;-64
2021/12/11 01:45:28;;;;;;;117.73;110.67;;;1.50;99.90;;;;;;4362982;32;20145;-64
2021/12/11 01:47:55;;;;;;;111.20;104.63;;;1.50;99.90;;;;;;4362532;32;20180;-64
2021/12/11 01:50:26;;;;;;;115.87;109.03;;;1.50;99.90;;;;;;4368306;32;20153;-64
2021/12/11 01:52:57;;;;;;;115.03;108.20;;;1.60;99.90;;;;;;4375720;32;20168;-64
2021/12/11 01:55:35;;;;;;;118.17;111.10;;;1.60;99.90;;;;;;4377385;32;20589;-63
2021/12/11 01:58:11;;;;;;;122.57;115.67;;;1.70;99.90;;;;;;4376006;32;20149;-63
2021/12/11 02:00:42;;;;;;;114.83;108.13;;;1.70;99.90;;;;;;4375810;32;20587;-64
2021/12/11 02:03:12;;;;;;;121.60;114.43;;;1.80;99.90;;;;;;4360881;32;20154;-64
2021/12/11 02:05:41;;;;;;;111.77;105.00;;;1.80;99.90;;;;;;4361844;32;20604;-63
2021/12/11 02:08:11;;;;;;;122.90;115.70;;;1.80;99.90;;;;;;4372204;32;20569;-63
2021/12/11 02:10:41;;;;;;;119.03;112.53;;;1.90;99.90;;;;;;4375992;32;20163;-64
2021/12/11 02:13:12;;;;;;;124.03;117.23;;;1.90;99.90;;;;;;4376348;32;20140;-63
2021/12/11 02:15:47;;;;;;;115.07;108.33;;;1.90;99.90;;;;;;4375682;32;20200;-64
2021/12/11 02:18:20;;;;;;;116.37;109.83;;;2.00;99.90;;;;;;4375676;32;20175;-64
2021/12/11 02:20:51;;;;;;;122.93;115.63;;;2.00;99.90;;;;;;4375855;32;20164;-64
2021/12/11 02:23:20;;;;;;;118.47;111.77;;;2.00;99.90;;;;;;4375668;32;20205;-63
2021/12/11 02:25:52;;;;;;;128.97;121.80;;;2.10;99.90;;;;;;4373968;32;20160;-65
2021/12/11 02:28:22;;;;;;;125.93;118.93;;;2.00;99.90;;;;;;4373699;32;20149;-64
2021/12/11 02:30:52;;;;;;;134.13;126.63;;;2.00;99.90;;;;;;4375270;32;20480;-64
2021/12/11 02:33:25;;;;;;;141.67;134.10;;;1.90;99.90;;;;;;4367279;32;20561;-64
2021/12/11 02:35:55;;;;;;;135.20;127.70;;;1.90;99.90;;;;;;4375519;32;20166;-64
2021/12/11 02:38:32;;;;;;;139.00;131.37;;;1.90;99.90;;;;;;4375577;32;20142;-64
2021/12/11 02:41:03;;;;;;;140.37;131.87;;;1.90;99.90;;;;;;4375434;32;20186;-63
2021/12/11 02:43:37;;;;;;;136.53;128.87;;;1.90;99.90;;;;;;4374991;32;20226;-64
2021/12/11 02:46:09;;;;;;;135.10;128.07;;;2.00;99.90;;;;;;4375563;32;20227;-63
2021/12/11 02:48:42;;;;;;;133.60;126.43;;;2.10;99.90;;;;;;4376364;32;20568;-64
2021/12/11 02:51:13;;;;;;;136.23;128.77;;;2.20;99.90;;;;;;4375549;32;20132;-64
2021/12/11 02:53:46;;;;;;;133.07;125.63;;;2.20;99.90;;;;;;4365709;32;20171;-64
2021/12/11 02:56:18;;;;;;;126.80;119.77;;;2.20;99.90;;;;;;4375234;32;20171;-63
2021/12/11 02:58:52;;;;;;;126.90;119.57;;;2.20;99.90;;;;;;4376380;32;20195;-65
2021/12/11 03:01:25;;;;;;;130.93;123.47;;;2.30;99.90;;;;;;4377104;32;20643;-64
2021/12/11 03:04:00;;;;;;;127.07;120.13;;;2.30;99.90;;;;;;4375275;32;20172;-64
2021/12/11 03:06:36;;;;;;;129.53;122.43;;;2.40;99.90;;;;;;4377083;32;20172;-63
2021/12/11 03:09:07;;;;;;;126.27;119.43;;;2.40;99.90;;;;;;4371827;32;20149;-64
2021/12/11 03:11:33;;;;;;;133.40;126.00;;;2.40;99.90;;;;;;4362181;33;20149;-63
2021/12/11 03:14:04;;;;;;;127.87;120.43;;;2.40;99.90;;;;;;4362134;33;20156;-64
2021/12/11 03:16:37;;;;;;;123.60;116.53;;;2.40;99.90;;;;;;4371773;32;20204;-63
2021/12/11 03:19:08;;;;;;;131.53;124.37;;;2.40;99.90;;;;;;4376935;32;20565;-64
2021/12/11 03:21:36;;;;;;;122.47;114.93;;;2.30;99.90;;;;;;4376669;32;20210;-64
2021/12/11 03:24:05;;;;;;;125.40;118.43;;;2.40;99.90;;;;;;4374770;32;20183;-63
2021/12/11 03:26:32;;;;;;;122.50;115.67;;;2.50;99.90;;;;;;4376644;32;20178;-63
2021/12/11 03:28:59;;;;;;;122.17;115.67;;;2.40;99.90;;;;;;4369457;32;20157;-64
2021/12/11 03:31:26;;;;;;;121.07;114.40;;;2.40;99.90;;;;;;4375140;32;20214;-64
2021/12/11 03:33:56;;;;;;;117.07;110.77;;;2.40;99.90;;;;;;4376086;32;20175;-63
2021/12/11 03:36:25;;;;;;;116.60;110.33;;;2.40;99.90;;;;;;4377359;32;20588;-63
2021/12/11 03:38:56;;;;;;;116.53;109.90;;;2.50;99.90;;;;;;4378057;32;20149;-63
2021/12/11 03:41:26;;;;;;;120.03;113.50;;;2.40;99.90;;;;;;4378755;32;20594;-63
2021/12/11 03:43:53;;;;;;;130.00;123.10;;;2.40;99.90;;;;;;4379762;32;20144;-63
2021/12/11 03:46:21;;;;;;;131.47;124.60;;;2.50;99.90;;;;;;4377881;32;20174;-63
2021/12/11 03:48:50;;;;;;;129.07;122.37;;;2.50;99.90;;;;;;4379577;32;20149;-63
2021/12/11 03:51:22;;;;;;;113.63;107.43;;;2.50;99.90;;;;;;4377185;32;20171;-63
2021/12/11 03:53:50;;;;;;;122.03;115.30;;;2.60;99.90;;;;;;4378015;32;20163;-63
2021/12/11 03:56:20;;;;;;;113.90;107.80;;;2.60;99.90;;;;;;4366665;32;20473;-63
2021/12/11 03:58:51;;;;;;;122.00;115.37;;;2.60;99.90;;;;;;4362914;33;20176;-63
2021/12/11 04:01:23;;;;;;;124.30;117.83;;;2.60;99.90;;;;;;4362851;33;20141;-63
2021/12/11 04:03:51;;;;;;;115.20;109.00;;;2.60;99.90;;;;;;4362597;32;20151;-63
2021/12/11 04:06:19;;;;;;;122.90;116.33;;;2.60;99.90;;;;;;4368581;32;20521;-64
2021/12/11 04:08:48;;;;;;;114.73;108.40;;;2.70;99.90;;;;;;4377611;32;20179;-63
2021/12/11 04:11:19;;;;;;;117.97;111.57;;;2.70;99.90;;;;;;4379400;32;20184;-64
2021/12/11 04:13:49;;;;;;;106.67;100.80;;;2.80;99.90;;;;;;4377811;32;20198;-64
2021/12/11 04:16:21;;;;;;;103.47;97.70;;;2.80;99.90;;;;;;4379339;32;20149;-64
2021/12/11 04:18:48;;;;;;;105.93;100.03;;;2.80;99.90;;;;;;4378354;32;20168;-64
2021/12/11 04:21:15;;;;;;;101.40;95.53;;;2.80;99.90;;;;;;4377622;32;20158;-64
2021/12/11 04:23:43;;;;;;;102.47;97.00;;;2.80;99.90;;;;;;4377190;32;20196;-64
2021/12/11 04:26:10;;;;;;;101.33;95.83;;;2.90;99.90;;;;;;4377368;32;20149;-64
2021/12/11 04:28:40;;;;;;;97.27;91.57;;;2.90;99.90;;;;;;4369220;32;20149;-64
2021/12/11 04:31:12;;;;;;;90.57;85.03;;;2.90;99.90;;;;;;4362194;33;20477;-64
2021/12/11 04:33:42;;;;;;;83.70;78.63;;;3.00;99.90;;;;;;4363878;32;20510;-64
2021/12/11 04:36:14;;;;;;;90.60;84.73;;;3.00;99.90;;;;;;4366961;32;20154;-64
2021/12/11 04:38:43;;;;;;;86.87;80.90;;;3.00;99.90;;;;;;4378257;32;20198;-64
2021/12/11 04:41:15;;;;;;;90.93;84.63;;;3.00;99.90;;;;;;4376732;32;20536;-64
2021/12/11 04:43:42;;;;;;;89.23;83.53;;;3.10;99.90;;;;;;4377223;32;20140;-64
2021/12/11 04:46:12;;;;;;;82.57;77.10;;;3.00;99.90;;;;;;4378438;32;20435;-64
2021/12/11 04:48:50;;;;;;;82.23;76.40;;;3.00;99.90;;;;;;4376114;32;20431;-64
2021/12/11 04:51:24;;;;;;;85.13;79.20;;;3.00;99.90;;;;;;4378602;32;20482;-64
2021/12/11 04:54:02;;;;;;;84.63;79.13;;;3.00;99.90;;;;;;4377053;32;20138;-64
2021/12/11 04:56:59;;;;;;;77.73;72.17;;;3.10;99.90;;;;;;4377027;32;20153;-64
2021/12/11 04:59:45;;;;;;;80.93;75.03;;;3.10;99.90;;;;;;4362775;32;20173;-64
2021/12/11 05:02:50;;;;;;;79.33;73.30;;;3.10;99.90;;;;;;4363697;32;20192;-64
2021/12/11 05:05:25;;;;;;;82.10;76.07;;;3.10;99.90;;;;;;4363476;32;20578;-64
2021/12/11 05:08:12;;;;;;;85.20;78.97;;;3.20;99.90;;;;;;4363602;32;20161;-64
2021/12/11 05:10:48;;;;;;;81.63;75.33;;;3.20;99.90;;;;;;4361952;33;20222;-64
2021/12/11 05:13:19;;;;;;;78.77;72.67;;;3.20;99.90;;;;;;4361934;33;20557;-64
2021/12/11 05:15:49;;;;;;;78.67;72.67;;;3.20;99.90;;;;;;4378081;32;20183;-64
2021/12/11 05:18:24;;;;;;;84.67;77.63;;;3.20;99.90;;;;;;4377826;32;20503;-65
2021/12/11 05:20:56;;;;;;;79.40;73.20;;;3.20;99.90;;;;;;4376783;32;20171;-67
2021/12/11 05:23:23;;;;;;;83.57;76.67;;;3.20;99.90;;;;;;4361365;32;20213;-65
2021/12/11 05:25:51;;;;;;;72.33;66.20;;;3.30;99.90;;;;;;4361620;32;20152;-65
2021/12/11 05:28:18;;;;;;;66.53;60.73;;;3.30;99.90;;;;;;4366740;32;20176;-68
2021/12/11 05:30:48;;;;;;;76.33;70.03;;;3.40;99.90;;;;;;4363615;32;20498;-66
2021/12/11 05:33:18;;;;;;;79.90;72.90;;;3.40;99.90;;;;;;4373311;32;20174;-66
2021/12/11 05:35:48;;;;;;;75.33;68.37;;;3.40;99.90;;;;;;4377276;32;20159;-65
2021/12/11 05:38:18;;;;;;;71.07;64.43;;;3.40;99.90;;;;;;4378295;32;20183;-65
2021/12/11 05:40:52;;;;;;;68.70;62.53;;;3.40;99.90;;;;;;4376224;32;20156;-64
2021/12/11 05:43:20;;;;;;;75.30;68.80;;;3.50;99.90;;;;;;4376336;32;20172;-67
2021/12/11 05:45:48;;;;;;;67.10;60.57;;;3.50;99.90;;;;;;4376234;32;20163;-66
2021/12/11 05:48:16;;;;;;;69.23;62.77;;;3.60;99.90;;;;;;4375721;32;20468;-64
2021/12/11 05:50:48;;;;;;;68.37;61.57;;;3.60;99.90;;;;;;4376474;32;20173;-66
2021/12/11 05:53:17;;;;;;;70.73;64.33;;;3.60;99.90;;;;;;4378131;32;20179;-62
2021/12/11 05:55:46;;;;;;;72.80;66.13;;;3.70;99.90;;;;;;4376024;32;20151;-65
2021/12/11 05:58:22;;;;;;;78.53;71.37;;;3.70;99.90;;;;;;4370641;32;20172;-69
2021/12/11 06:00:53;;;;;;;78.47;71.03;;;3.70;99.90;;;;;;4361159;32;20140;-65
2021/12/11 06:03:22;;;;;;;76.53;69.30;;;3.80;99.90;;;;;;4367316;32;20154;-69
2021/12/11 06:05:51;;;;;;;73.57;66.97;;;3.80;99.90;;;;;;4377579;32;20152;-67
2021/12/11 06:08:18;;;;;;;78.13;70.30;;;3.80;99.90;;;;;;4376080;32;20160;-63
2021/12/11 06:10:45;;;;;;;70.40;63.17;;;3.80;99.90;;;;;;4377734;32;20171;-64
2021/12/11 06:13:13;;;;;;;73.47;66.43;;;3.90;99.90;;;;;;4375923;32;20149;-64
2021/12/11 06:15:41;;;;;;;71.10;64.03;;;3.80;99.90;;;;;;4375866;32;20591;-64
2021/12/11 06:18:13;;;;;;;67.30;60.53;;;3.80;99.90;;;;;;4374201;32;20152;-67
2021/12/11 06:20:43;;;;;;;70.30;63.30;;;3.80;99.90;;;;;;4377532;32;20146;-65
2021/12/11 06:23:10;;;;;;;70.43;63.10;;;3.90;99.90;;;;;;4374550;32;20149;-66
2021/12/11 06:25:37;;;;;;;71.30;64.43;;;3.90;99.90;;;;;;4375493;32;20235;-67
2021/12/11 06:28:05;;;;;;;68.40;61.33;;;3.90;99.90;;;;;;4370148;32;20589;-64
2021/12/11 06:30:33;;;;;;;70.60;63.07;;;3.90;99.90;;;;;;4362621;32;20157;-66
2021/12/11 06:33:00;;;;;;;69.80;62.70;;;4.00;99.90;;;;;;4362499;32;20204;-66
2021/12/11 06:35:31;;;;;;;69.13;62.03;;;4.00;99.90;;;;;;4364210;32;20167;-68
2021/12/11 06:38:00;;;;;;;64.10;57.40;;;3.90;99.90;;;;;;4364405;32;20150;-66
2021/12/11 06:40:28;;;;;;;60.93;54.53;;;4.00;99.90;;;;;;4374774;32;20477;-64
2021/12/11 06:42:55;;;;;;;62.07;55.53;;;4.00;99.90;;;;;;4375096;32;20656;-66
2021/12/11 06:45:24;;;;;;;57.30;50.83;;;4.10;99.90;;;;;;4375787;32;20169;-66
2021/12/11 06:47:51;;;;;;;64.20;57.33;;;4.10;99.90;;;;;;4375293;32;20179;-68
2021/12/11 06:50:19;;;;;;;59.93;53.53;;;4.20;99.90;;;;;;4375598;32;20152;-63
2021/12/11 06:52:47;;;;;;;59.73;52.23;;;4.20;99.90;;;;;;4375596;32;20159;-66
2021/12/11 06:55:16;;;;;;;64.50;57.53;;;4.20;99.90;;;;;;4370559;32;20167;-67
2021/12/11 06:57:46;;;;;;;60.87;54.10;;;4.20;99.90;;;;;;4369211;32;20141;-69
2021/12/11 07:00:15;;;;;;;63.53;56.93;;;4.20;99.90;;;;;;4377088;32;20204;-68
2021/12/11 07:02:45;;;;;;;65.70;59.33;;;4.20;99.90;;;;;;4375101;32;20156;-64
2021/12/11 07:05:13;;;;;;;68.77;61.87;;;4.20;99.90;;;;;;4375881;32;20167;-66
2021/12/11 07:07:42;;;;;;;66.53;59.67;;;4.20;99.90;;;;;;4369972;32;20168;-66
2021/12/11 07:10:12;;;;;;;65.27;59.07;;;4.10;99.90;;;;;;4363043;33;20180;-65
2021/12/11 07:12:40;;;;;;;66.00;59.40;;;4.00;99.90;;;;;;4375842;32;20163;-65
2021/12/11 07:15:11;;;;;;;58.40;52.07;;;4.00;99.90;;;;;;4368410;32;20177;-65
2021/12/11 07:17:41;;;;;;;67.43;60.50;;;4.00;99.90;;;;;;4369259;32;20235;-65
2021/12/11 07:20:11;;;;;;;64.33;57.73;;;4.00;99.90;;;;;;4374267;32;20174;-65
2021/12/11 07:22:40;;;;;;;64.57;57.80;;;4.00;99.90;;;;;;4365509;32;20218;-66
2021/12/11 07:25:16;;;;;;;62.63;55.90;;;4.00;99.90;;;;;;4367819;32;20555;-65
2021/12/11 07:27:45;;;;;;;67.37;60.50;;;4.10;99.90;;;;;;4367530;32;20243;-64
2021/12/11 07:30:13;;;;;;;64.10;56.20;;;4.10;99.90;;;;;;4369428;32;20157;-67
2021/12/11 07:32:41;;;;;;;70.20;62.53;;;4.10;99.90;;;;;;4366847;32;20207;-66
2021/12/11 07:35:09;;;;;;;64.53;57.90;;;4.10;99.90;;;;;;4365539;32;20188;-64
2021/12/11 07:37:36;;;;;;;75.33;68.70;;;4.10;99.90;;;;;;4365772;32;20211;-64
2021/12/11 07:40:04;;;;;;;73.00;65.97;;;4.00;99.90;;;;;;4368250;32;20497;-64
2021/12/11 07:42:34;;;;;;;73.00;66.20;;;4.00;99.90;;;;;;4371120;32;20221;-66
2021/12/11 07:45:03;;;;;;;72.13;64.80;;;3.90;99.90;;;;;;4369274;32;20231;-64
2021/12/11 07:47:30;;;;;;;73.67;67.33;;;3.90;99.90;;;;;;4368174;32;20160;-64
2021/12/11 07:49:57;;;;;;;75.03;68.43;;;3.80;99.90;;;;;;4372432;32;20192;-65
2021/12/11 07:52:24;;;;;;;72.27;65.70;;;3.80;99.90;;;;;;4365829;32;20249;-63
2021/12/11 07:54:51;;;;;;;75.57;67.87;;;3.90;99.90;;;;;;4367778;32;20164;-64
2021/12/11 07:57:18;;;;;;;74.20;66.80;;;3.80;99.90;;;;;;4368990;32;20258;-65
2021/12/11 07:59:46;;;;;;;74.40;67.40;;;3.80;99.90;;;;;;4369504;32;20151;-67
2021/12/11 08:02:15;;;;;;;80.93;73.57;;;3.80;99.90;;;;;;4367319;32;20228;-67
2021/12/11 08:04:42;;;;;;;74.70;67.77;;;3.90;99.90;;;;;;4369016;32;20170;-63
2021/12/11 08:07:12;;;;;;;74.30;66.80;;;3.90;99.90;;;;;;4364669;32;20160;-63
2021/12/11 08:09:42;;;;;;;81.83;74.53;;;3.90;99.90;;;;;;4373952;32;20202;-63
2021/12/11 08:12:15;;;;;;;78.60;71.50;;;4.00;99.90;;;;;;4364849;32;20186;-66
2021/12/11 08:14:42;;;;;;;79.00;71.37;;;4.00;99.90;;;;;;4376383;32;20182;-65
2021/12/11 08:17:09;;;;;;;68.87;62.00;;;4.00;99.90;;;;;;4373165;32;20533;-63
2021/12/11 08:19:37;;;;;;;60.93;54.80;;;4.10;99.90;;;;;;4362717;32;20174;-63
2021/12/11 08:22:07;;;;;;;72.63;62.50;;;4.20;99.90;;;;;;4373460;32;20153;-66
2021/12/11 08:24:37;;;;;;;65.47;59.17;;;4.30;99.90;;;;;;4373203;32;20186;-64
2021/12/11 08:27:11;;;;;;;70.77;63.97;;;4.40;99.90;;;;;;4378172;32;20235;-63
2021/12/11 08:29:39;;;;;;;59.57;53.87;;;4.50;99.90;;;;;;4377626;32;20251;-66
2021/12/11 08:32:08;;;;;;;63.60;55.67;;;4.50;99.90;;;;;;4370446;32;20152;-63
2021/12/11 08:34:37;;;;;;;62.70;56.53;;;4.50;99.90;;;;;;4369697;32;20148;-64
2021/12/11 08:37:09;;;;;;;63.13;56.67;;;4.60;99.90;;;;;;4365704;32;20184;-64
2021/12/11 08:39:37;;;;;;;59.10;53.10;;;4.60;99.90;;;;;;4369263;32;20179;-65
2021/12/11 08:42:07;;;;;;;65.27;58.67;;;4.60;99.90;;;;;;4367187;32;20179;-64
2021/12/11 08:44:38;;;;;;;63.23;56.57;;;4.70;99.90;;;;;;4368400;32;20164;-64
2021/12/11 08:47:11;;;;;;;59.93;53.80;;;4.70;99.90;;;;;;4367510;32;20222;-67
2021/12/11 08:49:42;;;;;;;58.27;52.57;;;4.80;99.90;;;;;;4369543;32;20219;-64
2021/12/11 08:52:14;;;;;;;59.90;53.73;;;4.80;99.90;;;;;;4368361;32;20169;-64
2021/12/11 08:54:43;;;;;;;61.77;55.33;;;4.90;99.90;;;;;;4369304;32;20144;-65
2021/12/11 08:57:25;;;;;;;63.80;57.73;;;4.90;99.90;;;;;;4368518;32;20203;-66
2021/12/11 08:59:57;;;;;;;66.73;60.27;;;5.00;99.90;;;;;;4367295;32;20169;-65
2021/12/11 09:02:27;;;;;;;67.77;60.73;;;5.00;99.90;;;;;;4365357;32;20145;-65
2021/12/11 09:05:06;;;;;;;79.90;72.20;;;5.00;99.90;;;;;;4370007;32;20175;-63
2021/12/11 09:07:37;;;;;;;71.70;64.90;;;4.90;99.90;;;;;;4366836;32;20141;-63
2021/12/11 09:10:16;;;;;;;63.97;57.53;;;4.90;99.90;;;;;;4368475;32;20258;-64
2021/12/11 09:12:46;;;;;;;81.53;73.50;;;5.00;99.90;;;;;;4365805;32;20164;-64
2021/12/11 09:15:18;;;;;;;84.03;75.37;;;5.00;99.90;;;;;;4367268;32;20156;-65
2021/12/11 09:17:48;;;;;;;74.67;67.27;;;5.00;99.90;;;;;;4368319;32;20171;-64
2021/12/11 09:20:23;;;;;;;75.03;67.37;;;4.90;99.90;;;;;;4369218;32;20187;-65
2021/12/11 09:22:55;;;;;;;87.60;79.37;;;4.90;99.90;;;;;;4368648;32;20187;-64
2021/12/11 09:25:26;;;;;;;92.43;84.07;;;4.80;99.90;;;;;;4365846;32;20238;-64
2021/12/11 09:27:59;;;;;;;72.00;64.30;;;4.60;99.90;;;;;;4369446;32;20160;-64
2021/12/11 09:30:33;;;;;;;72.47;64.83;;;4.70;99.90;;;;;;4367883;32;20168;-65
2021/12/11 09:33:04;;;;;;;67.50;60.33;;;4.80;99.90;;;;;;4367464;32;20238;-65
2021/12/11 09:35:38;;;;;;;68.40;61.20;;;4.90;99.90;;;;;;4368347;32;20186;-66
2021/12/11 09:38:10;;;;;;;66.73;59.83;;;5.10;99.90;;;;;;4368041;32;20164;-65
2021/12/11 09:40:58;;;;;;;67.50;60.30;;;5.20;99.90;;;;;;4368674;32;20204;-65
2021/12/11 09:43:42;;;;;;;65.47;58.03;;;5.30;99.90;;;;;;4368896;32;20227;-64
2021/12/11 09:46:16;;;;;;;71.57;64.67;;;5.50;99.90;;;;;;4366667;32;20168;-64
2021/12/11 09:48:48;;;;;;;71.33;64.50;;;5.60;99.90;;;;;;4367298;32;20152;-64
2021/12/11 09:51:17;;;;;;;76.97;70.17;;;5.70;99.90;;;;;;4368956;32;20192;-66
2021/12/11 09:53:48;;;;;;;72.37;66.27;;;5.80;99.90;;;;;;4367782;32;20152;-67
2021/12/11 09:56:21;;;;;;;72.60;65.73;;;5.80;99.90;;;;;;4368585;32;20175;-64
2021/12/11 09:58:49;;;;;;;79.33;72.43;;;6.00;99.90;;;;;;4367517;32;20896;-66
2021/12/11 10:01:19;;;;;;;81.57;74.67;;;6.10;99.90;;;;;;4366650;32;20175;-65
2021/12/11 10:03:51;;;;;;;80.23;73.30;;;6.20;99.90;;;;;;4365517;32;20179;-64
2021/12/11 10:06:39;;;;;;;84.97;78.40;;;6.20;99.90;;;;;;4366360;32;20148;-64
2021/12/11 10:09:18;;;;;;;86.33;79.20;;;6.20;99.90;;;;;;4364210;32;20206;-64
2021/12/11 10:11:53;;;;;;;89.77;81.93;;;6.20;99.90;;;;;;4369378;32;20183;-64
2021/12/11 10:14:25;;;;;;;100.60;92.17;;;6.10;99.90;;;;;;4373994;32;20184;-65
2021/12/11 10:16:57;;;;;;;92.83;85.30;;;6.10;99.90;;;;;;4363940;32;20167;-65
2021/12/11 10:19:29;;;;;;;88.47;81.57;;;6.10;99.90;;;;;;4370711;32;20141;-64
2021/12/11 10:24:34;;;;;;;103.43;95.43;;;6.30;99.90;;;;;;4296496;32;2034154;-64
2021/12/11 10:27:03;;;;;;;111.03;102.27;;;6.30;99.90;;;;;;4370619;32;20915;-65
2021/12/11 10:29:32;;;;;;;106.00;98.23;;;6.20;99.90;;;;;;4374756;32;20223;-64
2021/12/11 10:32:02;;;;;;;97.87;90.03;;;6.20;99.90;;;;;;4365842;32;20182;-68
2021/12/11 10:34:32;;;;;;;97.93;90.43;;;6.30;99.90;;;;;;4374696;32;20195;-67
2021/12/11 10:37:02;;;;;;;97.80;90.23;;;6.40;99.90;;;;;;4367907;32;20160;-63
2021/12/11 10:39:31;;;;;;;90.17;83.07;;;6.40;99.90;;;;;;4361948;32;20228;-67
2021/12/11 10:41:59;;;;;;;92.37;85.33;;;6.40;99.90;;;;;;4360902;32;20208;-66
2021/12/11 10:44:29;;;;;;;84.10;77.87;;;6.50;99.90;;;;;;4373968;32;20276;-69
2021/12/11 10:47:00;;;;;;;90.73;84.13;;;6.60;99.90;;;;;;4366862;32;20211;-64
2021/12/11 10:49:27;;;;;;;85.77;79.13;;;6.90;99.90;;;;;;4373147;32;20252;-67
2021/12/11 10:51:58;;;;;;;85.83;79.23;;;6.90;99.90;;;;;;4368622;32;20196;-64
2021/12/11 10:54:29;;;;;;;92.37;84.97;;;6.90;99.90;;;;;;4367449;32;20626;-63
2021/12/11 10:56:57;;;;;;;91.60;84.47;;;6.80;99.90;;;;;;4375405;32;20604;-63
2021/12/11 10:59:27;;;;;;;88.70;82.13;;;6.70;99.90;;;;;;4362861;32;20224;-64
2021/12/11 11:01:59;;;;;;;91.53;84.47;;;6.70;99.90;;;;;;4369497;32;20266;-65
2021/12/11 11:04:28;;;;;;;89.07;82.20;;;6.60;99.90;;;;;;4367158;32;20481;-65
2021/12/11 11:06:55;;;;;;;92.40;85.13;;;6.50;99.90;;;;;;4361548;32;20156;-65
2021/12/11 11:09:24;;;;;;;94.17;87.13;;;6.40;99.90;;;;;;4368382;32;20161;-64
2021/12/11 11:11:54;;;;;;;96.87;89.57;;;6.30;99.90;;;;;;4368009;32;20226;-67
2021/12/11 11:14:23;;;;;;;92.70;85.97;;;6.30;99.90;;;;;;4363180;32;20176;-64
2021/12/11 11:16:54;;;;;;;92.40;85.17;;;6.30;99.90;;;;;;4368568;32;20216;-65
2021/12/11 11:19:22;;;;;;;85.47;78.47;;;6.30;99.90;;;;;;4373064;32;20212;-65
2021/12/11 11:21:56;;;;;;;87.93;80.73;;;6.50;99.90;;;;;;4361999;32;20172;-66
2021/12/11 11:24:25;;;;;;;89.47;82.67;;;6.40;99.90;;;;;;4359800;32;20514;-66
2021/12/11 11:26:52;;;;;;;86.83;80.10;;;6.40;99.90;;;;;;4369417;32;20164;-64
2021/12/11 11:29:23;;;;;;;91.17;84.00;;;6.30;99.90;;;;;;4375776;32;20212;-65
2021/12/11 11:31:54;;;;;;;87.33;79.70;;;6.20;99.90;;;;;;4376289;32;20171;-64
2021/12/11 11:34:23;;;;;;;84.90;77.67;;;6.20;99.90;;;;;;4366001;32;20244;-67
2021/12/11 11:36:50;;;;;;;90.23;82.70;;;6.30;99.90;;;;;;4375145;32;20171;-64
2021/12/11 11:39:20;;;;;;;94.97;86.83;;;6.40;99.90;;;;;;4365918;32;20539;-64
2021/12/11 11:41:50;;;;;;;93.97;86.53;;;6.60;99.90;;;;;;4360244;33;20632;-65
2021/12/11 11:44:21;;;;;;;86.47;79.40;;;6.70;99.90;;;;;;4364072;32;20173;-64
2021/12/11 11:46:50;;;;;;;81.93;74.73;;;6.80;99.90;;;;;;4374010;32;20210;-64
2021/12/11 11:49:18;;;;;;;83.20;76.30;;;7.00;99.90;;;;;;4375077;32;20192;-65
2021/12/11 11:51:49;;;;;;;81.13;74.50;;;7.10;99.90;;;;;;4375103;32;20188;-66
2021/12/11 11:54:17;;;;;;;76.70;70.27;;;7.10;99.90;;;;;;4358387;32;20184;-63
2021/12/11 11:56:49;;;;;;;74.43;67.67;;;7.00;99.90;;;;;;4362035;32;20180;-64
2021/12/11 11:59:16;;;;;;;77.27;70.37;;;6.90;99.90;;;;;;4367425;32;20629;-66
2021/12/11 12:01:46;;;;;;;76.57;70.17;;;6.70;99.90;;;;;;4376525;32;21296;-66
2021/12/11 12:04:17;;;;;;;77.60;71.30;;;6.50;99.90;;;;;;4370870;32;20194;-65
2021/12/11 12:06:48;;;;;;;80.60;73.93;;;6.30;99.90;;;;;;4371372;32;20216;-64
2021/12/11 12:09:16;;;;;;;86.10;78.53;;;6.20;99.90;;;;;;4367309;32;20234;-65
2021/12/11 12:11:43;;;;;;;84.97;77.73;;;6.20;99.90;;;;;;4375603;32;20578;-64
2021/12/11 12:14:15;;;;;;;84.83;77.67;;;6.20;99.90;;;;;;4375044;32;20534;-66
2021/12/11 12:16:47;;;;;;;84.80;77.53;;;6.20;99.90;;;;;;4372427;32;20183;-64
2021/12/11 12:19:16;;;;;;;82.67;75.80;;;6.20;99.90;;;;;;4375405;32;20190;-63
2021/12/11 12:21:46;;;;;;;78.90;71.83;;;6.10;99.90;;;;;;4368834;32;20180;-66
2021/12/11 12:24:13;;;;;;;77.20;70.77;;;6.10;99.90;;;;;;4366581;32;20254;-64
2021/12/11 12:26:41;;;;;;;78.57;71.70;;;6.10;99.90;;;;;;4373003;32;20198;-64
2021/12/11 12:29:11;;;;;;;72.40;65.50;;;6.00;99.90;;;;;;4365476;32;20188;-65
2021/12/11 12:31:42;;;;;;;84.47;76.37;;;5.90;99.90;;;;;;4370756;32;20195;-65
2021/12/11 12:34:12;;;;;;;71.93;64.63;;;6.00;99.90;;;;;;4366182;32;20624;-64
2021/12/11 12:36:44;;;;;;;72.53;65.27;;;6.00;99.90;;;;;;4371228;32;20529;-65
2021/12/11 12:39:11;;;;;;;68.70;61.57;;;6.00;99.90;;;;;;4372737;32;20201;-64
2021/12/11 12:41:44;;;;;;;68.60;61.83;;;6.00;99.90;;;;;;4376219;32;20161;-65
2021/12/11 12:44:18;;;;;;;64.43;58.10;;;6.00;99.90;;;;;;4374452;32;20214;-64
2021/12/11 12:46:52;;;;;;;70.43;62.43;;;6.00;99.90;;;;;;4365442;32;20198;-65
2021/12/11 12:49:20;;;;;;;65.67;59.30;;;6.10;99.90;;;;;;4368392;32;20294;-64
2021/12/11 12:51:49;;;;;;;58.80;52.87;;;6.10;99.90;;;;;;4368527;32;20164;-68